createdAt,value
2022-09-14T00:01:29.793Z,2.40
2022-09-14T00:04:00.477Z,2.90
2022-09-14T00:06:29.354Z,2.50
2022-09-14T00:09:00.928Z,2.83
2022-09-14T00:11:30.391Z,2.43
2022-09-14T00:13:59.799Z,2.70
2022-09-14T00:16:30.096Z,2.80
2022-09-14T00:19:00.634Z,3.47
2022-09-14T00:21:29.274Z,2.40
2022-09-14T00:23:58.703Z,3.20
2022-09-14T00:26:26.886Z,2.57
2022-09-14T00:28:56.709Z,2.60
2022-09-14T00:31:25.907Z,3.07
2022-09-14T00:33:55.037Z,2.90
2022-09-14T00:36:24.802Z,2.83
2022-09-14T00:38:55.226Z,2.70
2022-09-14T00:41:27.292Z,2.90
2022-09-14T00:43:58.305Z,2.90
2022-09-14T00:46:28.259Z,2.97
2022-09-14T00:48:58.974Z,3.10
2022-09-14T00:51:27.876Z,3.37
2022-09-14T00:53:56.532Z,3.07
2022-09-14T00:56:26.643Z,3.20
2022-09-14T00:58:56.542Z,2.90
2022-09-14T01:01:24.647Z,3.13
2022-09-14T01:03:52.629Z,2.90
2022-09-14T01:06:27.415Z,2.77
2022-09-14T01:09:06.884Z,3.10
2022-09-14T01:11:48.230Z,3.43
2022-09-14T01:14:27.206Z,3.10
2022-09-14T01:17:03.552Z,3.73
2022-09-14T01:19:51.085Z,3.50
2022-09-14T01:22:22.896Z,3.40
2022-09-14T01:24:56.766Z,3.57
2022-09-14T01:27:33.082Z,3.83
2022-09-14T01:30:08.401Z,3.97
2022-09-14T01:32:41.894Z,3.90
2022-09-14T01:35:17.283Z,3.95
2022-09-14T01:37:49.241Z,3.63
2022-09-14T01:40:23.394Z,3.70
2022-09-14T01:42:56.547Z,4.30
2022-09-14T01:45:27.405Z,4.03
2022-09-14T01:47:58.439Z,3.93
2022-09-14T01:50:31.360Z,3.90
2022-09-14T01:53:06.448Z,4.07
2022-09-14T01:55:39.098Z,4.00
2022-09-14T01:58:13.625Z,4.27
2022-09-14T02:00:47.004Z,4.47
2022-09-14T02:03:18.966Z,4.03
2022-09-14T02:05:53.887Z,4.30
2022-09-14T02:08:22.069Z,4.30
2022-09-14T02:10:50.018Z,4.33
2022-09-14T02:13:19.298Z,4.03
2022-09-14T02:15:47.302Z,4.30
2022-09-14T02:18:15.233Z,4.27
2022-09-14T02:20:47.579Z,4.07
2022-09-14T02:23:15.821Z,4.20
2022-09-14T02:25:43.745Z,4.13
2022-09-14T02:28:11.694Z,4.60
2022-09-14T02:30:50.819Z,4.33
2022-09-14T02:33:25.014Z,3.90
2022-09-14T02:35:56.456Z,4.50
2022-09-14T02:38:32.573Z,4.30
2022-09-14T02:41:10.217Z,4.70
2022-09-14T02:43:45.066Z,4.37
2022-09-14T02:46:22.897Z,4.40
2022-09-14T02:49:01.066Z,4.33
2022-09-14T02:51:34.252Z,4.30
2022-09-14T02:54:07.950Z,4.50
2022-09-14T02:56:37.675Z,4.30
2022-09-14T02:59:05.794Z,4.90
2022-09-14T03:01:35.518Z,5.10
2022-09-14T03:04:04.073Z,4.60
2022-09-14T03:06:32.221Z,4.33
2022-09-14T03:09:00.150Z,5.00
2022-09-14T03:11:28.109Z,4.57
2022-09-14T03:13:56.044Z,4.63
2022-09-14T03:16:24.021Z,4.63
2022-09-14T03:18:53.378Z,4.80
2022-09-14T03:21:21.302Z,4.77
2022-09-14T03:23:51.272Z,5.23
2022-09-14T03:26:21.330Z,4.07
2022-09-14T03:28:51.957Z,4.00
2022-09-14T03:31:20.786Z,4.20
2022-09-14T03:33:53.400Z,4.30
2022-09-14T03:36:22.903Z,4.30
2022-09-14T03:38:53.002Z,4.90
2022-09-14T03:41:22.259Z,4.30
2022-09-14T03:43:50.599Z,4.50
2022-09-14T03:46:21.767Z,4.50
2022-09-14T03:48:50.350Z,4.20
2022-09-14T03:51:18.882Z,4.57
2022-09-14T03:53:48.339Z,4.60
2022-09-14T03:56:19.332Z,5.00
2022-09-14T03:58:48.517Z,4.50
2022-09-14T04:01:18.489Z,4.20
2022-09-14T04:03:47.077Z,4.70
2022-09-14T04:06:16.142Z,4.80
2022-09-14T04:08:45.923Z,4.90
2022-09-14T04:11:17.654Z,4.70
2022-09-14T04:13:45.655Z,4.67
2022-09-14T04:16:14.143Z,5.17
2022-09-14T04:18:42.062Z,4.83
2022-09-14T04:21:18.709Z,4.73
2022-09-14T04:26:37.096Z,5.07
2022-09-14T04:29:05.183Z,4.90
2022-09-14T04:31:33.842Z,4.83
2022-09-14T04:34:01.862Z,5.27
2022-09-14T04:36:31.430Z,5.00
2022-09-14T04:39:01.184Z,4.90
2022-09-14T04:41:30.304Z,4.83
2022-09-14T04:44:00.644Z,4.47
2022-09-14T04:46:30.789Z,4.50
2022-09-14T04:48:59.302Z,4.30
2022-09-14T04:51:30.832Z,4.87
2022-09-14T04:54:00.294Z,4.20
2022-09-14T04:56:29.843Z,4.30
2022-09-14T04:59:00.579Z,4.50
2022-09-14T05:01:30.312Z,4.67
2022-09-14T05:03:58.926Z,4.13
2022-09-14T05:06:29.422Z,4.10
2022-09-14T05:08:59.263Z,3.88
2022-09-14T05:11:29.062Z,4.10
2022-09-14T05:13:57.947Z,3.75
2022-09-14T05:16:28.965Z,4.07
2022-09-14T05:18:58.222Z,4.07
2022-09-14T05:21:26.724Z,4.20
2022-09-14T05:23:55.965Z,3.50
2022-09-14T05:26:24.600Z,3.85
2022-09-14T05:28:55.262Z,3.58
2022-09-14T05:31:24.343Z,3.65
2022-09-14T05:33:54.438Z,3.20
2022-09-14T05:36:22.558Z,3.92
2022-09-14T05:38:50.631Z,2.80
2022-09-14T05:41:18.687Z,3.22
2022-09-14T05:43:46.594Z,3.10
2022-09-14T05:46:16.177Z,3.17
2022-09-14T05:48:44.831Z,2.92
2022-09-14T05:51:15.899Z,3.55
2022-09-14T05:53:44.154Z,3.20
2022-09-14T05:56:13.820Z,3.08
2022-09-14T05:58:43.185Z,2.65
2022-09-14T06:01:12.878Z,2.92
2022-09-14T06:03:41.182Z,2.80
2022-09-14T06:06:10.377Z,2.72
2022-09-14T06:08:40.281Z,2.85
2022-09-14T06:11:09.925Z,3.33
2022-09-14T06:13:38.734Z,3.05
2022-09-14T06:16:08.780Z,3.17
2022-09-14T06:18:38.497Z,2.53
2022-09-14T06:21:07.744Z,2.67
2022-09-14T06:23:36.386Z,2.80
2022-09-14T06:26:06.826Z,2.92
2022-09-14T06:28:35.683Z,2.95
2022-09-14T06:31:04.629Z,2.55
2022-09-14T06:33:33.202Z,3.45
2022-09-14T06:36:03.993Z,2.90
2022-09-14T06:38:32.282Z,2.90
2022-09-14T06:41:01.886Z,2.90
2022-09-14T06:43:34.466Z,2.70
2022-09-14T06:46:04.623Z,2.22
2022-09-14T06:48:34.637Z,2.53
2022-09-14T06:51:12.738Z,2.95
2022-09-14T06:53:40.730Z,2.70
2022-09-14T06:56:08.765Z,2.20
2022-09-14T06:58:38.039Z,2.67
2022-09-14T07:01:07.020Z,2.28
2022-09-14T07:03:37.902Z,2.40
2022-09-14T07:06:07.511Z,2.70
2022-09-14T07:08:35.839Z,2.80
2022-09-14T07:11:04.600Z,2.50
2022-09-14T07:13:33.449Z,2.50
2022-09-14T07:16:03.461Z,2.17
2022-09-14T07:18:33.049Z,2.50
2022-09-14T07:21:05.853Z,2.60
2022-09-14T07:23:34.649Z,2.38
2022-09-14T07:26:05.198Z,2.50
2022-09-14T07:28:33.267Z,2.72
2022-09-14T07:31:03.061Z,2.47
2022-09-14T07:33:31.154Z,2.40
2022-09-14T07:36:06.550Z,2.25
2022-09-14T07:38:51.209Z,2.20
2022-09-14T07:41:20.552Z,2.70
2022-09-14T07:43:50.526Z,2.00
2022-09-14T07:46:20.746Z,2.40
2022-09-14T07:48:50.122Z,2.15
2022-09-14T07:51:18.111Z,2.20
2022-09-14T07:53:46.050Z,2.50
2022-09-14T07:56:16.812Z,2.30
2022-09-14T07:58:45.325Z,2.50
2022-09-14T08:01:15.413Z,2.10
2022-09-14T08:03:46.674Z,2.33
2022-09-14T08:06:16.606Z,2.55
2022-09-14T08:08:46.066Z,2.30
2022-09-14T08:11:16.628Z,2.30
2022-09-14T08:13:46.288Z,2.13
2022-09-14T08:16:15.031Z,2.13
2022-09-14T08:18:44.480Z,2.13
2022-09-14T08:21:14.422Z,1.98
2022-09-14T08:23:43.511Z,2.40
2022-09-14T08:26:13.038Z,2.38
2022-09-14T08:28:41.459Z,2.05
2022-09-14T08:31:10.982Z,2.38
2022-09-14T08:33:41.025Z,2.08
2022-09-14T08:36:12.004Z,2.05
2022-09-14T08:38:39.952Z,2.10
2022-09-14T08:41:13.413Z,2.17
2022-09-14T08:46:16.421Z,2.05
2022-09-14T08:48:48.947Z,2.50
2022-09-14T08:51:18.893Z,2.20
2022-09-14T08:53:47.391Z,2.00
2022-09-14T08:56:19.698Z,2.30
2022-09-14T08:59:03.574Z,1.88
2022-09-14T09:01:46.126Z,2.28
2022-09-14T09:04:26.694Z,2.08
2022-09-14T09:07:02.351Z,2.40
2022-09-14T09:09:39.833Z,2.38
2022-09-14T09:12:08.451Z,2.30
2022-09-14T09:14:40.814Z,2.20
2022-09-14T09:17:16.858Z,2.00
2022-09-14T09:19:55.365Z,2.15
2022-09-14T09:22:28.974Z,2.35
2022-09-14T09:24:57.025Z,2.22
2022-09-14T09:27:26.468Z,2.30
2022-09-14T09:29:54.572Z,2.47
2022-09-14T09:32:25.004Z,2.20
2022-09-14T09:34:53.428Z,2.00
2022-09-14T09:37:25.143Z,2.10
2022-09-14T09:39:53.122Z,2.40
2022-09-14T09:42:24.255Z,2.00
2022-09-14T09:45:02.450Z,2.03
2022-09-14T09:47:33.867Z,2.80
2022-09-14T09:50:05.130Z,2.20
2022-09-14T09:52:34.858Z,2.30
2022-09-14T09:55:05.790Z,2.13
2022-09-14T09:57:35.790Z,2.60
2022-09-14T10:00:12.937Z,2.38
2022-09-14T10:02:41.634Z,2.45
2022-09-14T10:05:21.611Z,1.90
2022-09-14T10:07:57.517Z,2.08
2022-09-14T10:10:40.492Z,2.28
2022-09-14T10:13:27.048Z,2.13
2022-09-14T10:15:55.303Z,2.20
2022-09-14T10:18:24.576Z,1.83
2022-09-14T10:21:10.033Z,2.60
2022-09-14T10:23:40.441Z,1.98
2022-09-14T10:26:32.398Z,2.10
2022-09-14T10:29:29.718Z,2.20
2022-09-14T10:32:02.635Z,2.15
2022-09-14T10:34:30.746Z,2.45
2022-09-14T10:37:12.891Z,2.22
2022-09-14T10:39:48.369Z,2.20
2022-09-14T10:42:26.994Z,2.10
2022-09-14T10:45:08.353Z,2.15
2022-09-14T10:48:08.639Z,2.10
2022-09-14T10:50:48.505Z,1.85
2022-09-14T10:53:32.774Z,2.08
2022-09-14T10:56:07.513Z,2.05
2022-09-14T10:59:00.136Z,1.80
2022-09-14T11:01:43.334Z,2.30
2022-09-14T11:04:25.201Z,2.03
2022-09-14T11:06:59.472Z,2.10
2022-09-14T11:09:31.671Z,1.67
2022-09-14T11:12:08.014Z,1.70
2022-09-14T11:14:58.535Z,1.60
2022-09-14T11:17:58.006Z,1.58
2022-09-14T11:20:42.616Z,1.90
2022-09-14T11:23:24.454Z,1.50
2022-09-14T11:25:57.970Z,1.67
2022-09-14T11:28:32.190Z,1.52
2022-09-14T11:31:07.662Z,1.60
2022-09-14T11:33:41.177Z,1.90
2022-09-14T11:36:17.695Z,1.55
2022-09-14T11:38:51.445Z,1.70
2022-09-14T11:41:25.101Z,1.77
2022-09-14T11:43:59.136Z,1.70
2022-09-14T11:46:33.720Z,1.30
2022-09-14T11:49:12.512Z,1.63
2022-09-14T11:51:45.336Z,1.70
2022-09-14T11:54:17.293Z,1.70
2022-09-14T11:56:49.366Z,1.70
2022-09-14T11:59:50.495Z,1.67
2022-09-14T12:02:55.105Z,2.20
2022-09-14T12:05:34.937Z,1.95
2022-09-14T12:08:22.499Z,1.70
2022-09-14T12:11:05.334Z,1.77
2022-09-14T12:13:33.465Z,2.10
2022-09-14T12:16:08.007Z,1.90
2022-09-14T12:18:38.200Z,1.95
2022-09-14T12:21:09.406Z,1.80
2022-09-14T12:23:48.185Z,1.45
2022-09-14T12:26:33.017Z,2.00
2022-09-14T12:29:06.834Z,1.60
2022-09-14T12:31:56.457Z,1.80
2022-09-14T12:34:25.449Z,1.75
2022-09-14T12:37:25.734Z,1.70
2022-09-14T12:40:33.465Z,1.60
2022-09-14T12:43:49.427Z,1.63
2022-09-14T12:46:48.936Z,1.73
2022-09-14T12:49:36.668Z,1.52
2022-09-14T12:52:18.168Z,1.60
2022-09-14T12:55:00.572Z,1.70
2022-09-14T12:57:35.172Z,1.80
2022-09-14T13:00:13.050Z,2.10
2022-09-14T13:03:14.050Z,1.77
2022-09-14T13:05:44.857Z,1.50
2022-09-14T13:08:13.967Z,2.10
2022-09-14T13:10:47.636Z,1.70
2022-09-14T13:13:18.763Z,1.90
2022-09-14T13:15:53.426Z,1.60
2022-09-14T13:18:34.742Z,1.80
2022-09-14T13:21:05.119Z,1.98
2022-09-14T13:23:38.037Z,2.05
2022-09-14T13:26:14.309Z,1.90
2022-09-14T13:28:44.781Z,1.98
2022-09-14T13:31:15.909Z,2.15
2022-09-14T13:33:51.185Z,1.75
2022-09-14T13:36:22.769Z,2.05
2022-09-14T13:38:51.702Z,2.22
2022-09-14T13:41:22.953Z,1.92
2022-09-14T13:43:54.402Z,1.70
2022-09-14T13:46:23.372Z,2.10
2022-09-14T13:48:54.201Z,1.98
2022-09-14T13:51:25.799Z,2.30
2022-09-14T13:53:55.791Z,2.15
2022-09-14T13:56:26.945Z,2.30
2022-09-14T13:59:17.842Z,2.22
2022-09-14T14:01:54.014Z,2.30
2022-09-14T14:04:30.685Z,2.10
2022-09-14T14:07:16.830Z,1.90
2022-09-14T14:09:50.767Z,2.10
2022-09-14T14:12:27.587Z,2.13
2022-09-14T14:15:00.474Z,2.33
2022-09-14T14:17:37.989Z,1.90
2022-09-14T14:20:35.342Z,2.25
2022-09-14T14:23:21.215Z,2.70
2022-09-14T14:25:54.171Z,2.55
2022-09-14T14:28:26.052Z,2.63
2022-09-14T14:30:54.622Z,2.25
2022-09-14T14:33:23.230Z,2.50
2022-09-14T14:35:54.484Z,2.13
2022-09-14T14:38:23.442Z,2.03
2022-09-14T14:40:52.331Z,1.90
2022-09-14T14:43:23.613Z,1.90
2022-09-14T14:45:54.647Z,2.05
2022-09-14T14:48:23.608Z,1.98
2022-09-14T14:50:55.757Z,2.33
2022-09-14T14:53:23.958Z,2.08
2022-09-14T14:55:52.518Z,2.60
2022-09-14T14:58:23.086Z,2.33
2022-09-14T15:00:51.838Z,2.35
2022-09-14T15:03:20.053Z,2.33
2022-09-14T15:05:52.926Z,2.10
2022-09-14T15:08:21.165Z,2.63
2022-09-14T15:10:49.743Z,2.22
2022-09-14T15:13:17.710Z,2.13
2022-09-14T15:15:45.769Z,2.25
2022-09-14T15:18:13.692Z,2.40
2022-09-14T15:20:41.693Z,2.00
2022-09-14T15:23:14.164Z,2.40
2022-09-14T15:25:42.093Z,2.38
2022-09-14T15:28:09.985Z,2.60
2022-09-14T15:30:37.931Z,2.17
2022-09-14T15:33:05.947Z,2.47
2022-09-14T15:35:33.868Z,2.20
2022-09-14T15:38:01.775Z,2.10
2022-09-14T15:40:31.092Z,2.15
2022-09-14T15:42:59.436Z,2.50
2022-09-14T15:45:27.525Z,2.30
2022-09-14T15:47:55.734Z,2.10
2022-09-14T15:50:23.824Z,2.05
2022-09-14T15:52:51.717Z,2.33
2022-09-14T15:55:19.635Z,2.53
2022-09-14T15:57:48.952Z,2.30
2022-09-14T16:00:17.083Z,2.25
2022-09-14T16:02:45.026Z,2.53
2022-09-14T16:05:13.573Z,2.30
2022-09-14T16:07:41.658Z,2.42
2022-09-14T16:10:10.550Z,3.15
2022-09-14T16:12:38.450Z,2.80
2022-09-14T16:15:09.682Z,2.40
2022-09-14T16:17:37.617Z,2.58
2022-09-14T16:20:08.778Z,2.70
2022-09-14T16:22:36.867Z,2.60
2022-09-14T16:25:05.189Z,2.78
2022-09-14T16:27:33.261Z,2.65
2022-09-14T16:30:01.168Z,2.85
2022-09-14T16:32:30.437Z,2.88
2022-09-14T16:34:58.370Z,2.80
2022-09-14T16:37:26.526Z,2.88
2022-09-14T16:39:54.619Z,3.10
2022-09-14T16:42:22.633Z,2.90
2022-09-14T16:44:50.539Z,2.85
2022-09-14T16:47:18.469Z,2.97
2022-09-14T16:49:47.786Z,2.90
2022-09-14T16:52:15.682Z,2.90
2022-09-14T16:54:43.719Z,3.47
2022-09-14T16:57:11.646Z,3.25
2022-09-14T16:59:39.925Z,3.55
2022-09-14T17:02:07.932Z,3.75
2022-09-14T17:04:35.880Z,3.67
2022-09-14T17:07:05.176Z,3.40
2022-09-14T17:09:34.394Z,3.88
2022-09-14T17:12:02.354Z,3.70
2022-09-14T17:14:32.410Z,3.97
2022-09-14T17:17:00.891Z,3.80
2022-09-14T17:19:28.954Z,4.07
2022-09-14T17:21:56.974Z,3.95
2022-09-14T17:24:26.830Z,3.35
2022-09-14T17:26:54.755Z,4.03
2022-09-14T17:29:22.813Z,4.10
2022-09-14T17:31:50.844Z,4.03
2022-09-14T17:34:19.090Z,3.90
2022-09-14T17:36:47.017Z,4.18
2022-09-14T17:39:15.684Z,4.40
2022-09-14T17:41:45.218Z,4.00
2022-09-14T17:44:14.539Z,4.00
2022-09-14T17:46:53.066Z,3.85
2022-09-14T17:49:23.023Z,3.90
2022-09-14T17:51:51.640Z,3.50
2022-09-14T17:54:20.091Z,3.72
2022-09-14T17:56:49.521Z,3.50
2022-09-14T17:59:20.189Z,3.80
2022-09-14T18:01:48.779Z,3.60
2022-09-14T18:04:17.540Z,4.13
2022-09-14T18:06:46.699Z,3.47
2022-09-14T18:09:16.849Z,3.63
2022-09-14T18:11:45.385Z,4.22
2022-09-14T18:14:16.059Z,3.60
2022-09-14T18:16:45.804Z,3.90
2022-09-14T18:19:14.271Z,3.40
2022-09-14T18:21:42.979Z,3.53
2022-09-14T18:24:12.282Z,3.47
2022-09-14T18:26:40.197Z,3.20
2022-09-14T18:29:08.341Z,3.00
2022-09-14T18:31:38.268Z,3.30
2022-09-14T18:34:08.389Z,3.42
2022-09-14T18:36:37.066Z,3.17
2022-09-14T18:39:05.362Z,3.58
2022-09-14T18:41:34.231Z,3.28
2022-09-14T18:44:02.861Z,3.58
2022-09-14T18:46:30.935Z,3.55
2022-09-14T18:49:02.368Z,3.65
2022-09-14T18:51:32.553Z,3.28
2022-09-14T18:54:03.303Z,3.28
2022-09-14T18:56:33.388Z,3.47
2022-09-14T18:59:02.134Z,3.33
2022-09-14T19:01:30.142Z,3.30
2022-09-14T19:03:58.284Z,3.00
2022-09-14T19:06:27.618Z,3.40
2022-09-14T19:08:55.665Z,3.03
2022-09-14T19:11:26.774Z,3.22
2022-09-14T19:13:57.283Z,3.05
2022-09-14T19:16:25.610Z,3.17
2022-09-14T19:18:53.599Z,2.92
2022-09-14T19:21:24.179Z,2.78
2022-09-14T19:24:00.545Z,3.10
2022-09-14T19:26:30.905Z,2.90
2022-09-14T19:29:01.533Z,3.17
2022-09-14T19:31:30.815Z,3.13
2022-09-14T19:33:59.128Z,3.00
2022-09-14T19:36:28.493Z,3.15
2022-09-14T19:39:01.867Z,3.00
2022-09-14T19:41:30.791Z,2.80
2022-09-14T19:43:58.985Z,3.28
2022-09-14T19:46:27.542Z,3.00
2022-09-14T19:48:55.673Z,2.80
2022-09-14T19:51:26.137Z,2.92
2022-09-14T19:53:56.154Z,3.42
2022-09-14T19:56:27.674Z,2.90
2022-09-14T19:58:58.396Z,3.00
2022-09-14T20:01:27.814Z,3.25
2022-09-14T20:03:56.254Z,3.17
2022-09-14T20:06:26.687Z,3.35
2022-09-14T20:08:57.487Z,2.97
2022-09-14T20:11:28.913Z,3.00
2022-09-14T20:13:58.112Z,2.90
2022-09-14T20:16:29.668Z,3.60
2022-09-14T20:18:59.724Z,2.80
2022-09-14T20:21:28.573Z,2.97
2022-09-14T20:24:15.112Z,2.95
2022-09-14T20:26:46.489Z,3.17
2022-09-14T20:29:15.246Z,2.92
2022-09-14T20:31:43.727Z,3.15
2022-09-14T20:34:12.873Z,3.30
2022-09-14T20:36:41.395Z,3.38
2022-09-14T20:39:09.568Z,3.30
2022-09-14T20:41:37.726Z,2.55
2022-09-14T20:44:07.474Z,3.00
2022-09-14T20:46:39.184Z,3.22
2022-09-14T20:49:09.779Z,3.08
2022-09-14T20:51:38.162Z,2.92
2022-09-14T20:54:07.070Z,3.15
2022-09-14T20:56:36.475Z,3.05
2022-09-14T20:59:08.497Z,3.35
2022-09-14T21:01:38.881Z,2.80
2022-09-14T21:04:08.569Z,3.00
2022-09-14T21:06:38.082Z,2.90
2022-09-14T21:09:06.415Z,2.80
2022-09-14T21:11:34.926Z,2.72
2022-09-14T21:14:03.389Z,3.08
2022-09-14T21:16:34.413Z,2.75
2022-09-14T21:19:04.406Z,2.80
2022-09-14T21:21:32.885Z,2.50
2022-09-14T21:24:01.340Z,2.28
2022-09-14T21:26:34.077Z,2.63
2022-09-14T21:29:03.619Z,2.43
2022-09-14T21:31:33.818Z,2.50
2022-09-14T21:34:03.337Z,2.45
2022-09-14T21:36:34.727Z,2.42
2022-09-14T21:39:06.662Z,2.78
2022-09-14T21:41:34.690Z,2.30
2022-09-14T21:44:03.074Z,2.67
2022-09-14T21:46:32.584Z,2.80
2022-09-14T21:49:00.974Z,2.45
2022-09-14T21:51:30.971Z,2.97
2022-09-14T21:54:00.324Z,2.63
2022-09-14T21:56:30.580Z,2.75
2022-09-14T21:59:00.643Z,2.90
2022-09-14T22:01:30.254Z,2.58
2022-09-14T22:04:00.017Z,2.40
2022-09-14T22:06:30.061Z,2.50
2022-09-14T22:08:59.970Z,3.00
2022-09-14T22:11:30.185Z,2.30
2022-09-14T22:13:59.926Z,2.35
2022-09-14T22:16:29.895Z,2.63
2022-09-14T22:19:01.039Z,3.13
2022-09-14T22:21:30.071Z,3.00
2022-09-14T22:24:01.296Z,2.95
2022-09-14T22:26:31.512Z,3.15
2022-09-14T22:29:00.590Z,2.50
2022-09-14T22:31:29.940Z,2.80
2022-09-14T22:33:59.970Z,2.95
2022-09-14T22:36:28.632Z,3.50
2022-09-14T22:38:57.353Z,2.70
2022-09-14T22:41:26.141Z,2.75
2022-09-14T22:43:55.393Z,2.85
2022-09-14T22:46:24.790Z,2.65
2022-09-14T22:48:53.429Z,2.28
2022-09-14T22:51:25.151Z,2.60
2022-09-14T22:53:53.910Z,2.47
2022-09-14T22:56:23.848Z,2.70
2022-09-14T22:58:52.556Z,2.67
2022-09-14T23:01:23.125Z,2.83
2022-09-14T23:03:55.635Z,3.08
2022-09-14T23:06:27.157Z,2.30
2022-09-14T23:08:55.051Z,2.70
2022-09-14T23:11:23.090Z,2.40
2022-09-14T23:13:51.382Z,2.50
2022-09-14T23:16:21.471Z,2.50
2022-09-14T23:18:52.366Z,2.25
2022-09-14T23:21:20.723Z,2.40
2022-09-14T23:23:53.411Z,2.55
2022-09-14T23:26:22.234Z,2.47
2022-09-14T23:28:54.235Z,2.33
2022-09-14T23:31:23.009Z,2.80
2022-09-14T23:33:52.269Z,2.65
2022-09-14T23:36:20.681Z,2.38
2022-09-14T23:38:49.209Z,2.50
2022-09-14T23:41:19.898Z,2.10
2022-09-14T23:43:48.542Z,2.50
2022-09-14T23:46:17.719Z,3.00
2022-09-14T23:48:46.027Z,2.80
2022-09-14T23:51:14.850Z,2.78
2022-09-14T23:53:42.815Z,2.58
2022-09-14T23:56:11.807Z,2.75
2022-09-14T23:58:42.419Z,2.53
